Aviation Digital Data Service (ADDS)

Output produced by METARs form (1750 UTC 20 January 2019)
found at http://www.aviationweather.gov/metar/data/
 
GMAD 201730Z 27018KT 9999 FEW020 FEW083 18/11 Q1018 NOSIG
TAF GMAD 201700Z 2018/2124 27019KT 9999 FEW020 
     BECMG 2020/2022 10006KT 
     BECMG 2112/2114 27012KT
       
GMMC 201700Z 34012KT 9999 BKN016TCU SCT026 15/09 Q1021
GMFO 201700Z 29015KT 9999 FEW020 SCT040TCU 13/07 Q1013 NOSIG
TAF COR GMFO 201700Z 2018/2124 30019KT 9999 FEW020 BKN040TCU 
     TEMPO 2102/2107 6000 SHRA SCT016 FEW033CB BKN040 
     BECMG 2114/2118 32017KT 9999 RA SCT020 SCT040
       
GMMW 201700Z 28007KT 8000 FEW026 SCT040 14/05 Q1014 NOSIG
TAF GMMW 201700Z 2018/2124 28007KT 8000 FEW026 SCT040 
     BECMG 2109/2111 4000 -RA BKN030 BKN100 
     BECMG 2114/2116 8000 NSW NSC
       
GMFM 201700Z 27008KT 6000 SCT013 BKN016 10/09 Q1019 NOSIG
TAF GMFM 201700Z 2018/2124 27010KT 5000 -RA SCT013 BKN016 
     BECMG 2022/2102 14006KT 6000 FEW010 BKN016 
     PROB30 
     TEMPO 2104/2110 3000 -RA BR 
     BECMG 2112/2116 32010KT 9999 SCT020 SCT100
       
GMTA 201700Z 28018G30KT 9999 FEW020 SCT030 15/07 Q1015 NOSIG M0
TAF GMTA 201700Z 2018/2124 29017G30KT 8000 NSC 
     BECMG 2118/2120 4000 -RA BKN020 BKN040
       
GMMI 201700Z 36009KT 7000 SCT013TCU BKN016 18/12 Q1021 TEMPO 5000 -SHRA BKN070
TAF GMMI 201700Z 2018/2124 36004KT 8000 NSC
       
GMTT 201730Z 33011KT 300V360 9999 SCT026 BKN033 14/07 Q1018 NOSIG
TAF GMTT 201700Z 2018/2124 30015KT 9999 FEW020 BKN023 
     BECMG 2018/2022 28004KT 
     PROB30 
     TEMPO 2020/2024 4000 RA
       
GMMX 201730Z 20005KT 9999 BKN023 15/11 Q1021 NOSIG
TAF GMMX 201700Z 2018/2124 24008KT 8000 SCT023 SCT080
       
GMMN 201730Z 34010KT 9999 SCT016 BKN020 14/13 Q1021 NOSIG
TAF GMMN 201700Z 2018/2124 32010KT 8000 BKN016 
     BECMG 2022/2024 16006KT 
     BECMG 2109/2112 30012KT 9999 SCT016
       
GMFK 201700Z 28008KT 9999 FEW026 19/M07 Q1015 NOSIG
GMMZ 201700Z 32029KT 6000 FEW030 15/M01 Q1016 NOSIG
TAF GMMZ 201700Z 2018/2124 31028G38KT 9999 FEW030 
     BECMG 2022/2100 30018KT 
     BECMG 2112/2114 02030G40KT
       
GMAT 201700Z 36016KT 6000 BKN016 17/12 Q1021 NOSIG
GMFF 201730Z 26009KT 9000 SCT013 BKN020 BKN080 10/10 Q1020 NOSIG
TAF GMFF 201700Z 2018/2124 28012KT 8000 SCT013 BKN020 BKN080 
     TEMPO 2020/2103 22020G30KT 4000 RA SCT010 BKN020 
     BECMG 2110/2114 20006KT BKN026
       
GMME 201730Z 31008KT 280V340 5000 SCT020 15/07 Q1020 NOSIG
TAF GMME 201700Z 2018/2124 26010KT 8000 SCT020 
     TEMPO 2100/2108 18006KT
       
GMTN 201700Z 27013KT 9999 SCT020 BKN026 14/08 Q1016 NOSIG